Time;durP1;ratioP1;P1;durP2;ratioP2;P2;SDS_P1;SDS_P2;PMS_P1;PMS_P2;Temp;Humidity;BMP_temperature;BMP_pressure;BME280_temperature;BME280_humidity;BME280_pressure;Samples;Min_cycle;Max_cycle;Signal;HPM_P1;HPM_P2
2023/03/02 00:01:08;;;;;;;0.40;0.40;;;;;;;4.84;100.00;101817.06;5039504;28;20036;-54
2023/03/02 00:03:37;;;;;;;0.65;0.30;;;;;;;4.85;100.00;101814.28;5043010;28;20033;-54
2023/03/02 00:06:02;;;;;;;0.95;0.43;;;;;;;4.79;100.00;101809.53;5040238;28;20099;-55
2023/03/02 00:08:28;;;;;;;0.65;0.10;;;;;;;4.69;100.00;101811.22;5053588;28;20037;-53
2023/03/02 00:10:56;;;;;;;2.58;0.20;;;;;;;4.58;100.00;101806.81;5050317;28;20036;-52
2023/03/02 00:13:22;;;;;;;0.10;0.00;;;;;;;4.51;100.00;101813.47;5046946;28;20390;-52
2023/03/02 00:15:47;;;;;;;0.47;0.10;;;;;;;4.43;100.00;101818.50;5046280;28;20017;-51
2023/03/02 00:18:13;;;;;;;0.20;0.20;;;;;;;4.26;100.00;101822.41;5036711;28;20033;-49
2023/03/02 00:20:38;;;;;;;0.00;0.00;;;;;;;4.26;100.00;101825.03;5038200;28;20033;-55
2023/03/02 00:23:03;;;;;;;0.28;0.08;;;;;;;4.31;100.00;101828.13;5048476;28;20064;-53
2023/03/02 00:25:29;;;;;;;0.40;0.00;;;;;;;4.24;100.00;101834.84;5042454;28;20487;-51
2023/03/02 00:27:54;;;;;;;0.08;0.00;;;;;;;4.19;100.00;101823.84;5048524;28;20065;-52
2023/03/02 00:30:20;;;;;;;0.10;0.10;;;;;;;4.22;100.00;101823.59;5044340;28;20032;-54
2023/03/02 00:32:45;;;;;;;0.65;0.08;;;;;;;4.19;100.00;101824.69;5045709;28;20238;-52
2023/03/02 00:35:11;;;;;;;1.75;0.00;;;;;;;4.14;100.00;101829.44;5048347;28;20052;-53
2023/03/02 00:37:37;;;;;;;0.38;0.00;;;;;;;4.00;100.00;101825.25;5041407;28;20408;-51
2023/03/02 00:40:05;;;;;;;3.03;0.10;;;;;;;3.86;100.00;101828.03;5044673;28;20032;-56
2023/03/02 00:42:31;;;;;;;0.77;0.77;;;;;;;3.72;100.00;101829.91;5046963;28;20068;-50
2023/03/02 00:44:58;;;;;;;0.52;0.00;;;;;;;3.69;100.00;101827.50;5047057;28;20069;-54
2023/03/02 00:47:23;;;;;;;0.52;0.00;;;;;;;3.67;100.00;101832.03;5046389;28;20036;-50
2023/03/02 00:49:48;;;;;;;0.05;0.00;;;;;;;3.53;100.00;101837.44;5050146;28;20476;-52
2023/03/02 00:52:16;;;;;;;0.75;0.10;;;;;;;3.46;100.00;101828.38;5052039;28;20063;-50
2023/03/02 00:54:41;;;;;;;0.45;0.05;;;;;;;3.43;100.00;101820.69;5042928;28;20032;-54
2023/03/02 00:57:07;;;;;;;0.15;0.00;;;;;;;3.35;100.00;101823.88;5048127;28;20482;-50
2023/03/02 00:59:32;;;;;;;0.90;0.00;;;;;;;3.23;100.00;101816.94;5048721;28;20029;-51
2023/03/02 01:01:59;;;;;;;0.05;0.00;;;;;;;3.11;100.00;101823.03;5045151;28;20474;-53
2023/03/02 01:04:30;;;;;;;0.17;0.00;;;;;;;2.95;100.00;101820.69;5039632;28;20025;-55
2023/03/02 01:07:16;;;;;;;0.30;0.00;;;;;;;2.86;100.00;101818.69;5042844;28;20497;-51
2023/03/02 01:09:43;;;;;;;0.90;0.25;;;;;;;2.72;100.00;101828.34;5049327;28;20052;-51
2023/03/02 01:12:10;;;;;;;1.45;0.03;;;;;;;2.55;100.00;101826.91;5046510;28;20029;-49
2023/03/02 01:14:41;;;;;;;0.32;0.00;;;;;;;2.36;100.00;101822.09;5046202;28;20413;-55
2023/03/02 01:17:07;;;;;;;0.00;0.00;;;;;;;2.12;100.00;101827.22;5041730;28;20493;-51
2023/03/02 01:19:33;;;;;;;0.13;0.10;;;;;;;1.95;100.00;101836.19;5040389;28;20116;-54
2023/03/02 01:21:58;;;;;;;0.20;0.10;;;;;;;1.89;100.00;101836.59;5042835;28;20055;-53
2023/03/02 01:24:24;;;;;;;0.65;0.10;;;;;;;1.94;100.00;101839.75;5042956;28;20033;-51
2023/03/02 01:26:49;;;;;;;0.15;0.15;;;;;;;1.86;100.00;101831.56;5042764;28;20347;-51
2023/03/02 01:29:14;;;;;;;0.25;0.00;;;;;;;1.79;100.00;101832.09;5054590;28;20111;-53
2023/03/02 01:31:40;;;;;;;0.38;0.00;;;;;;;1.75;100.00;101831.44;5043199;28;20056;-50
2023/03/02 01:34:05;;;;;;;0.43;0.00;;;;;;;1.68;100.00;101833.63;5044215;28;20067;-50
2023/03/02 01:36:31;;;;;;;2.72;0.00;;;;;;;1.63;100.00;101832.25;5042934;28;20488;-53
2023/03/02 01:38:56;;;;;;;1.95;0.22;;;;;;;1.52;100.00;101827.69;5046784;28;20052;-52
2023/03/02 01:41:22;;;;;;;4.90;0.10;;;;;;;1.48;100.00;101827.06;5047917;28;20126;-55
2023/03/02 01:43:47;;;;;;;0.98;0.10;;;;;;;1.49;100.00;101818.28;5043766;28;20055;-52
2023/03/02 01:46:31;;;;;;;0.10;0.10;;;;;;;1.44;100.00;101817.72;5044506;28;20029;-50
2023/03/02 01:49:03;;;;;;;0.47;0.03;;;;;;;1.38;100.00;101827.75;5049788;28;20176;-51
2023/03/02 01:51:33;;;;;;;1.20;0.15;;;;;;;1.25;100.00;101818.09;5045651;28;20041;-52
2023/03/02 01:54:07;;;;;;;2.92;0.20;;;;;;;1.19;100.00;101825.47;5040712;28;20385;-52
2023/03/02 01:56:36;;;;;;;0.20;0.10;;;;;;;1.09;100.00;101820.84;5053304;28;20400;-55
2023/03/02 01:59:06;;;;;;;0.10;0.10;;;;;;;1.00;100.00;101812.72;5042298;28;20032;-55
2023/03/02 02:01:35;;;;;;;0.20;0.10;;;;;;;0.96;100.00;101821.72;5042612;28;20373;-52
2023/03/02 02:04:01;;;;;;;1.55;0.52;;;;;;;0.85;100.00;101809.28;5039469;28;20029;-54
2023/03/02 02:06:38;;;;;;;0.25;0.10;;;;;;;0.79;100.00;101804.47;5051194;28;20045;-50
2023/03/02 02:09:08;;;;;;;0.30;0.20;;;;;;;0.71;100.00;101801.50;5046612;28;20384;-52
2023/03/02 02:11:33;;;;;;;2.25;0.20;;;;;;;0.64;100.00;101801.03;5033408;28;20075;-51
2023/03/02 02:14:00;;;;;;;0.75;0.25;;;;;;;0.64;100.00;101795.81;5048112;28;20432;-55
2023/03/02 02:16:27;;;;;;;0.82;0.30;;;;;;;0.62;100.00;101800.28;5048140;28;20439;-55
2023/03/02 02:18:54;;;;;;;0.35;0.30;;;;;;;0.61;100.00;101799.44;5045550;28;20025;-52
2023/03/02 02:21:22;;;;;;;0.10;0.00;;;;;;;0.71;100.00;101796.28;5046790;28;20103;-51
2023/03/02 02:24:10;;;;;;;1.55;0.45;;;;;;;0.79;100.00;101796.63;5049044;28;20096;-52
2023/03/02 02:26:40;;;;;;;0.20;0.10;;;;;;;0.82;100.00;101796.44;5045143;28;20481;-49
2023/03/02 02:29:21;;;;;;;0.98;0.32;;;;;;;0.83;100.00;101793.75;5044470;28;20110;-50
2023/03/02 02:32:21;;;;;;;1.02;0.52;;;;;;;0.99;100.00;101793.63;5040828;28;20366;-54
2023/03/02 02:35:02;;;;;;;0.32;0.30;;;;;;;1.09;100.00;101797.31;5044196;28;20041;-53
2023/03/02 02:37:32;;;;;;;1.15;0.50;;;;;;;1.23;100.00;101798.22;5054143;28;20024;-53
2023/03/02 02:40:00;;;;;;;0.63;0.10;;;;;;;1.35;100.00;101797.44;5035312;28;20029;-53
2023/03/02 02:42:33;;;;;;;0.28;0.10;;;;;;;1.38;100.00;101797.22;5044640;28;20040;-51
2023/03/02 02:45:02;;;;;;;0.35;0.20;;;;;;;1.46;100.00;101786.28;5050367;28;20040;-54
2023/03/02 02:47:27;;;;;;;0.38;0.38;;;;;;;1.56;100.00;101795.19;5042356;28;20032;-52
2023/03/02 02:49:54;;;;;;;0.55;0.10;;;;;;;1.62;100.00;101793.94;5041736;28;20403;-53
2023/03/02 02:52:22;;;;;;;0.20;0.20;;;;;;;1.62;100.00;101788.72;5043072;28;20116;-54
2023/03/02 02:54:51;;;;;;;0.20;0.20;;;;;;;1.62;100.00;101786.94;5044194;28;20025;-52
2023/03/02 02:57:18;;;;;;;0.20;0.20;;;;;;;1.67;100.00;101787.47;5044675;28;20037;-52
2023/03/02 02:59:48;;;;;;;0.90;0.20;;;;;;;1.60;100.00;101787.97;5037767;28;20029;-54
2023/03/02 03:02:19;;;;;;;2.10;0.22;;;;;;;1.47;100.00;101775.75;5044158;28;20397;-56
2023/03/02 03:04:44;;;;;;;;;;;;;;;1.55;100.00;101782.22;5046391;28;20071;-54
2023/03/02 03:07:17;;;;;;;1.02;0.28;;;;;;;1.40;100.00;101784.91;5047227;28;19921;-54
2023/03/02 03:09:42;;;;;;;0.40;0.40;;;;;;;1.37;100.00;101779.88;5040416;28;20500;-51
2023/03/02 03:12:20;;;;;;;0.98;0.20;;;;;;;1.43;100.00;101779.47;5045372;28;20037;-55
2023/03/02 03:14:46;;;;;;;0.38;0.38;;;;;;;1.59;100.00;101778.47;5043863;28;20033;-52
2023/03/02 03:17:12;;;;;;;0.30;0.13;;;;;;;1.61;100.00;101771.38;5046515;28;20025;-54
2023/03/02 03:19:43;;;;;;;0.22;0.00;;;;;;;1.68;100.00;101776.09;5054368;28;20791;-50
2023/03/02 03:22:11;;;;;;;0.35;0.10;;;;;;;1.76;100.00;101767.75;5042455;28;20397;-54
2023/03/02 03:24:37;;;;;;;0.13;0.10;;;;;;;1.79;100.00;101770.16;5046165;28;20293;-53
2023/03/02 03:27:04;;;;;;;0.30;0.30;;;;;;;1.77;100.00;101769.41;5045429;28;20038;-52
2023/03/02 03:29:30;;;;;;;1.08;0.30;;;;;;;1.80;100.00;101771.81;5045296;28;20031;-52
2023/03/02 03:31:56;;;;;;;0.50;0.30;;;;;;;1.76;100.00;101770.34;5041672;28;20066;-52
2023/03/02 03:34:23;;;;;;;1.98;0.47;;;;;;;1.77;100.00;101777.25;5050203;28;20035;-53
2023/03/02 03:36:48;;;;;;;3.70;0.10;;;;;;;1.84;100.00;101775.06;5048072;28;20047;-51
2023/03/02 03:39:17;;;;;;;0.63;0.15;;;;;;;1.90;100.00;101775.50;5044375;28;20025;-51
2023/03/02 03:41:42;;;;;;;0.10;0.10;;;;;;;1.95;100.00;101769.94;5040919;28;20049;-53
2023/03/02 03:44:08;;;;;;;1.08;0.35;;;;;;;2.03;100.00;101774.66;5047607;28;20078;-52
2023/03/02 03:46:34;;;;;;;0.10;0.00;;;;;;;2.10;100.00;101778.56;5050398;28;20385;-53
2023/03/02 03:49:00;;;;;;;0.10;0.10;;;;;;;2.14;100.00;101777.38;5055855;28;20047;-50
2023/03/02 03:51:26;;;;;;;0.85;0.20;;;;;;;2.22;100.00;101780.34;5048289;28;20040;-50
2023/03/02 03:54:01;;;;;;;0.65;0.35;;;;;;;2.28;100.00;101782.53;5048195;28;20045;-53
2023/03/02 03:56:28;;;;;;;0.20;0.20;;;;;;;2.29;100.00;101780.75;5044276;28;20043;-52
2023/03/02 03:59:05;;;;;;;0.43;0.10;;;;;;;2.33;100.00;101780.44;5051939;28;20040;-51
2023/03/02 04:01:48;;;;;;;1.23;0.35;;;;;;;2.37;100.00;101781.88;5036990;28;20506;-55
2023/03/02 04:04:17;;;;;;;0.40;0.38;;;;;;;2.33;100.00;101779.59;5043967;28;20021;-52
2023/03/02 04:06:44;;;;;;;0.68;0.28;;;;;;;2.38;100.00;101780.13;5048411;28;20033;-55
2023/03/02 04:09:11;;;;;;;0.57;0.20;;;;;;;2.44;100.00;101771.84;5047671;28;20354;-53
2023/03/02 04:11:38;;;;;;;0.40;0.40;;;;;;;2.45;100.00;101772.66;5040531;28;20077;-54
2023/03/02 04:14:04;;;;;;;0.20;0.20;;;;;;;2.44;100.00;101781.47;5048777;28;20032;-55
2023/03/02 04:16:31;;;;;;;0.20;0.10;;;;;;;2.47;100.00;101781.25;5046709;28;20070;-51
2023/03/02 04:18:57;;;;;;;0.30;0.30;;;;;;;2.48;100.00;101786.41;5049953;28;20124;-51
2023/03/02 04:21:23;;;;;;;1.85;0.30;;;;;;;2.50;100.00;101783.66;5044746;28;20538;-52
2023/03/02 04:23:48;;;;;;;0.50;0.50;;;;;;;2.49;100.00;101788.06;5051549;28;20033;-52
2023/03/02 04:26:13;;;;;;;0.88;0.32;;;;;;;2.56;100.00;101788.47;5046350;28;20081;-53
2023/03/02 04:28:39;;;;;;;0.40;0.20;;;;;;;2.49;100.00;101787.22;5053462;28;20477;-54
2023/03/02 04:31:04;;;;;;;0.65;0.40;;;;;;;2.48;100.00;101789.00;5045637;28;20382;-51
2023/03/02 04:33:29;;;;;;;0.10;0.00;;;;;;;2.47;100.00;101796.97;5035802;28;20390;-51
2023/03/02 04:35:55;;;;;;;0.63;0.20;;;;;;;2.52;100.00;101805.34;5044661;28;20110;-52
2023/03/02 04:38:20;;;;;;;1.40;0.63;;;;;;;2.56;100.00;101799.78;5056897;28;20100;-52
2023/03/02 04:40:46;;;;;;;1.98;0.43;;;;;;;2.50;100.00;101797.56;5042577;28;20048;-55
2023/03/02 04:43:11;;;;;;;0.95;0.20;;;;;;;2.56;100.00;101806.81;5043084;28;20474;-55
2023/03/02 04:45:37;;;;;;;1.10;0.65;;;;;;;2.58;100.00;101795.28;5040496;28;20052;-52
2023/03/02 04:48:03;;;;;;;0.65;0.45;;;;;;;2.59;100.00;101796.94;5054998;28;20037;-55
2023/03/02 04:50:28;;;;;;;1.55;0.50;;;;;;;2.58;100.00;101797.03;5057109;28;20076;-54
2023/03/02 04:52:54;;;;;;;2.22;0.30;;;;;;;2.57;100.00;101790.97;5039019;28;20108;-53
2023/03/02 04:55:21;;;;;;;4.38;0.70;;;;;;;2.59;100.00;101796.13;5047412;28;20421;-52
2023/03/02 04:57:47;;;;;;;2.03;0.80;;;;;;;2.58;100.00;101790.03;5043706;28;20362;-51
2023/03/02 05:00:14;;;;;;;2.17;0.45;;;;;;;2.58;100.00;101786.56;5039264;28;20037;-51
2023/03/02 05:02:40;;;;;;;0.47;0.30;;;;;;;2.53;100.00;101788.66;5045488;28;20377;-52
2023/03/02 05:05:06;;;;;;;1.75;0.50;;;;;;;2.47;100.00;101783.88;5039872;28;20029;-52
2023/03/02 05:07:32;;;;;;;1.73;1.10;;;;;;;2.42;100.00;101784.19;5048152;28;20075;-54
2023/03/02 05:09:57;;;;;;;1.75;1.30;;;;;;;2.42;100.00;101783.34;5044739;28;20477;-53
2023/03/02 05:12:23;;;;;;;1.33;0.75;;;;;;;2.39;100.00;101781.78;5037134;28;20031;-50
2023/03/02 05:14:48;;;;;;;1.20;0.90;;;;;;;2.35;100.00;101780.31;5045190;28;20040;-50
2023/03/02 05:17:14;;;;;;;1.90;0.85;;;;;;;2.27;100.00;101782.63;5051421;28;20060;-53
2023/03/02 05:19:39;;;;;;;4.38;0.85;;;;;;;2.18;100.00;101787.53;5045298;28;20390;-52
2023/03/02 05:22:04;;;;;;;1.73;0.93;;;;;;;2.18;100.00;101792.78;5044885;28;20056;-51
2023/03/02 05:24:30;;;;;;;1.63;1.15;;;;;;;2.19;100.00;101788.38;5044957;28;20028;-51
2023/03/02 05:26:55;;;;;;;2.80;2.50;;;;;;;2.18;100.00;101790.16;5052556;28;20428;-52
2023/03/02 05:29:20;;;;;;;3.92;1.52;;;;;;;2.17;100.00;101780.66;5046945;28;20033;-55
2023/03/02 05:31:46;;;;;;;2.83;1.45;;;;;;;2.10;100.00;101791.63;5045353;28;20037;-52
2023/03/02 05:34:15;;;;;;;4.82;1.65;;;;;;;2.10;100.00;101775.94;5036138;28;20063;-50
2023/03/02 05:36:41;;;;;;;2.55;2.00;;;;;;;2.11;100.00;101781.03;5039221;28;20037;-54
2023/03/02 05:39:07;;;;;;;4.97;2.00;;;;;;;2.10;100.00;101783.78;5050961;28;20078;-53
2023/03/02 05:41:33;;;;;;;3.47;1.88;;;;;;;2.13;100.00;101792.25;5044919;28;20047;-51
2023/03/02 05:43:58;;;;;;;5.28;2.17;;;;;;;2.15;100.00;101793.00;5049056;28;20053;-55
2023/03/02 05:46:24;;;;;;;3.17;2.40;;;;;;;2.19;100.00;101788.38;5042456;28;20033;-52
2023/03/02 05:48:49;;;;;;;2.70;1.40;;;;;;;2.22;100.00;101782.09;5054395;28;20489;-54
2023/03/02 05:51:15;;;;;;;5.05;2.47;;;;;;;2.17;100.00;101791.13;5047302;28;20033;-51
2023/03/02 05:53:40;;;;;;;6.00;2.50;;;;;;;2.19;100.00;101793.59;5051302;28;20159;-53
2023/03/02 05:56:06;;;;;;;3.13;2.33;;;;;;;2.15;100.00;101792.16;5047371;28;20061;-55
2023/03/02 05:58:31;;;;;;;3.63;2.00;;;;;;;2.12;100.00;101792.38;5052196;28;20049;-51
2023/03/02 06:00:57;;;;;;;4.35;2.78;;;;;;;2.03;100.00;101785.97;5041112;28;20137;-53
2023/03/02 06:03:22;;;;;;;4.05;2.13;;;;;;;1.98;100.00;101787.22;5037152;28;20037;-55
2023/03/02 06:05:51;;;;;;;4.32;2.53;;;;;;;1.98;100.00;101787.22;5042427;28;20569;-50
2023/03/02 06:08:18;;;;;;;4.88;2.53;;;;;;;2.00;100.00;101793.19;5045833;28;20106;-53
2023/03/02 06:10:44;;;;;;;3.67;2.17;;;;;;;2.04;100.00;101789.41;5041818;28;20113;-55
2023/03/02 06:13:10;;;;;;;3.85;1.92;;;;;;;2.09;100.00;101800.41;5047291;28;20100;-52
2023/03/02 06:15:35;;;;;;;4.30;2.35;;;;;;;2.12;100.00;101795.81;5044480;28;20044;-52
2023/03/02 06:18:01;;;;;;;4.28;2.42;;;;;;;2.18;100.00;101791.94;5044714;28;20033;-52
2023/03/02 06:20:27;;;;;;;3.85;1.85;;;;;;;2.20;100.00;101790.06;5045732;28;20130;-52
2023/03/02 06:22:52;;;;;;;4.10;2.15;;;;;;;2.17;100.00;101796.34;5045044;28;20033;-52
2023/03/02 06:25:20;;;;;;;5.57;2.75;;;;;;;2.14;100.00;101791.34;5045590;28;20082;-52
2023/03/02 06:27:45;;;;;;;3.15;2.10;;;;;;;2.08;100.00;101793.50;5040558;28;20122;-52
2023/03/02 06:30:16;;;;;;;1.55;1.45;;;;;;;2.02;100.00;101792.16;5045277;28;20553;-50
2023/03/02 06:32:41;;;;;;;3.22;1.48;;;;;;;1.87;100.00;101786.16;5042916;28;20251;-52
2023/03/02 06:35:08;;;;;;;6.00;2.67;;;;;;;1.71;100.00;101786.34;5038502;28;20061;-53
2023/03/02 06:37:33;;;;;;;3.67;2.03;;;;;;;1.58;100.00;101792.50;5043550;28;20032;-54
2023/03/02 06:39:59;;;;;;;4.40;2.90;;;;;;;1.50;100.00;101801.66;5044700;28;20029;-53
2023/03/02 06:42:25;;;;;;;6.13;2.47;;;;;;;1.44;100.00;101790.75;5045693;28;20051;-52
2023/03/02 06:44:53;;;;;;;7.25;3.08;;;;;;;1.41;100.00;101806.66;5045335;28;20045;-53
2023/03/02 06:47:19;;;;;;;5.72;2.45;;;;;;;1.33;100.00;101798.47;5043041;28;20032;-52
2023/03/02 06:49:44;;;;;;;5.78;2.13;;;;;;;1.28;100.00;101802.19;5051154;28;20032;-51
2023/03/02 06:52:12;;;;;;;1.98;1.63;;;;;;;1.32;100.00;101808.09;5045842;28;20036;-55
2023/03/02 06:54:37;;;;;;;3.50;2.03;;;;;;;1.32;100.00;101808.09;5043075;28;20037;-54
2023/03/02 06:57:03;;;;;;;2.67;1.33;;;;;;;1.35;100.00;101807.06;5042398;28;20054;-53
2023/03/02 06:59:28;;;;;;;5.30;2.20;;;;;;;1.33;100.00;101814.97;5050839;28;20032;-51
2023/03/02 07:01:54;;;;;;;4.13;2.42;;;;;;;1.29;100.00;101810.88;5047379;28;20075;-54
2023/03/02 07:04:19;;;;;;;2.38;1.65;;;;;;;1.25;100.00;101823.31;5044326;28;20036;-53
2023/03/02 07:06:44;;;;;;;3.47;1.80;;;;;;;1.26;100.00;101821.53;5044526;28;20530;-52
2023/03/02 07:09:10;;;;;;;2.78;1.80;;;;;;;1.24;100.00;101819.03;5045533;28;20058;-50
2023/03/02 07:11:35;;;;;;;11.40;2.03;;;;;;;1.14;100.00;101817.09;5046913;28;20466;-49
2023/03/02 07:14:01;;;;;;;8.15;2.95;;;;;;;1.22;100.00;101822.69;5049492;28;20051;-52
2023/03/02 07:16:26;;;;;;;5.97;2.53;;;;;;;1.22;100.00;101820.91;5044366;28;20094;-51
2023/03/02 07:18:51;;;;;;;3.70;1.88;;;;;;;1.25;100.00;101817.25;5048226;28;20037;-54
2023/03/02 07:21:17;;;;;;;9.15;3.60;;;;;;;1.22;100.00;101815.66;5044050;28;20393;-52
2023/03/02 07:23:43;;;;;;;3.05;1.88;;;;;;;1.15;100.00;101817.00;5048318;28;20429;-53
2023/03/02 07:26:08;;;;;;;2.33;1.63;;;;;;;1.18;100.00;101824.63;5046376;28;20048;-53
2023/03/02 07:28:40;;;;;;;6.65;3.00;;;;;;;1.18;100.00;101818.56;5045160;28;20110;-55
2023/03/02 07:31:07;;;;;;;4.30;2.78;;;;;;;1.25;100.00;101822.47;5045663;28;20056;-52
2023/03/02 07:33:33;;;;;;;4.70;1.90;;;;;;;1.32;100.00;101823.78;5041626;28;20053;-55
2023/03/02 07:35:59;;;;;;;2.72;1.98;;;;;;;1.38;100.00;101818.13;5041538;28;20037;-53
2023/03/02 07:38:24;;;;;;;3.58;1.85;;;;;;;1.44;100.00;101817.72;5052822;28;20028;-52
2023/03/02 07:40:50;;;;;;;5.00;2.45;;;;;;;1.48;100.00;101811.38;5051875;28;20068;-56
2023/03/02 07:43:16;;;;;;;11.32;3.25;;;;;;;1.48;100.00;101803.53;5045902;28;20033;-57
2023/03/02 07:45:41;;;;;;;4.20;2.33;;;;;;;1.49;100.00;101804.38;5042967;28;20063;-54
2023/03/02 07:48:06;;;;;;;6.38;2.20;;;;;;;1.48;100.00;101803.53;5048429;28;20040;-53
2023/03/02 07:50:32;;;;;;;3.70;1.83;;;;;;;1.44;100.00;101807.28;5047528;28;20025;-54
2023/03/02 07:52:57;;;;;;;5.82;1.83;;;;;;;1.39;100.00;101804.13;5053859;28;20290;-54
2023/03/02 07:55:23;;;;;;;6.40;3.42;;;;;;;1.43;100.00;101800.38;5053591;28;20082;-55
2023/03/02 07:57:48;;;;;;;9.07;2.53;;;;;;;1.56;100.00;101804.81;5045063;28;20105;-53
2023/03/02 08:00:14;;;;;;;3.53;2.30;;;;;;;1.67;100.00;101802.34;5052876;28;20505;-51
2023/03/02 08:02:40;;;;;;;6.00;1.80;;;;;;;1.78;100.00;101799.00;5045665;28;20496;-53
2023/03/02 08:05:06;;;;;;;5.43;2.72;;;;;;;1.92;100.00;101801.56;5045390;28;20571;-54
2023/03/02 08:07:31;;;;;;;8.60;2.47;;;;;;;2.02;100.00;101802.63;5051426;28;20114;-51
2023/03/02 08:09:57;;;;;;;4.65;2.80;;;;;;;2.20;100.00;101804.94;5047440;28;20062;-54
2023/03/02 08:12:22;;;;;;;12.45;3.95;;;;;;;2.44;100.00;101797.19;5046384;28;20031;-55
2023/03/02 08:14:48;;;;;;;5.43;3.60;;;;;;;2.67;100.00;101798.19;5048417;28;20121;-50
2023/03/02 08:17:14;;;;;;;6.75;3.58;;;;;;;2.86;100.00;101802.97;5038969;28;20037;-54
2023/03/02 08:19:39;;;;;;;13.82;5.13;;;;;;;3.09;100.00;101794.31;5042091;28;20041;-52
2023/03/02 08:22:04;;;;;;;18.83;4.82;;;;;;;3.32;100.00;101797.88;5046382;28;20032;-53
2023/03/02 08:24:30;;;;;;;8.93;3.72;;;;;;;3.49;100.00;101794.06;5046553;28;20029;-53
2023/03/02 08:26:59;;;;;;;11.98;4.35;;;;;;;3.70;100.00;101802.13;5048237;28;20111;-51
2023/03/02 08:29:25;;;;;;;8.98;5.00;;;;;;;3.91;100.00;101797.03;5047079;28;20066;-52
2023/03/02 08:31:51;;;;;;;16.35;7.13;;;;;;;4.06;100.00;101795.88;5038202;28;20116;-53
2023/03/02 08:34:16;;;;;;;11.23;6.45;;;;;;;4.26;100.00;101798.78;5045238;28;20029;-53
2023/03/02 08:36:42;;;;;;;21.00;6.63;;;;;;;4.45;100.00;101793.78;5054425;28;20115;-52
2023/03/02 08:39:08;;;;;;;15.93;7.32;;;;;;;4.51;100.00;101789.84;5046857;28;20104;-50
2023/03/02 08:41:34;;;;;;;18.83;8.70;;;;;;;4.90;100.00;101795.53;5048315;28;20155;-52
2023/03/02 08:43:59;;;;;;;16.95;6.93;;;;;;;5.10;100.00;101791.34;5044910;28;20053;-56
2023/03/02 08:46:24;;;;;;;17.00;7.30;;;;;;;5.24;100.00;101796.31;5054928;28;20031;-56
2023/03/02 08:48:50;;;;;;;14.13;6.93;;;;;;;5.38;100.00;101800.47;5046347;28;20103;-52
2023/03/02 08:51:21;;;;;;;14.13;7.43;;;;;;;5.54;100.00;101805.31;5045129;28;20037;-52
2023/03/02 08:53:49;;;;;;;15.65;7.30;;;;;;;5.69;100.00;101804.88;5046961;28;20051;-51
2023/03/02 08:56:29;;;;;;;15.60;8.43;;;;;;;5.78;100.00;101803.28;5045133;28;20032;-52
2023/03/02 08:58:58;;;;;;;16.90;7.60;;;;;;;5.95;100.00;101799.28;5048769;28;20087;-52
2023/03/02 09:01:27;;;;;;;18.70;7.05;;;;;;;5.89;100.00;101805.84;5041978;28;20047;-53
2023/03/02 09:03:53;;;;;;;12.05;6.55;;;;;;;5.85;100.00;101804.44;5029696;28;20033;-56
2023/03/02 09:06:18;;;;;;;14.63;8.18;;;;;;;5.87;100.00;101806.94;5038982;28;20089;-54
2023/03/02 09:08:44;;;;;;;13.25;6.32;;;;;;;5.79;100.00;101809.38;5037172;28;20069;-57
2023/03/02 09:11:10;;;;;;;14.57;6.25;;;;;;;5.70;100.00;101813.59;5030908;28;20056;-55
2023/03/02 09:13:36;;;;;;;11.00;6.38;;;;;;;5.82;100.00;101815.22;5036352;28;20048;-50
2023/03/02 09:16:01;;;;;;;15.18;7.15;;;;;;;5.98;100.00;101809.53;5026846;28;20119;-55
2023/03/02 09:18:28;;;;;;;12.45;6.43;;;;;;;6.24;100.00;101809.97;5040181;28;20033;-53
2023/03/02 09:20:55;;;;;;;15.20;10.25;;;;;;;6.48;100.00;101811.47;5038979;28;20045;-55
2023/03/02 09:23:20;;;;;;;15.65;7.25;;;;;;;6.71;100.00;101815.63;5038156;28;20115;-55
2023/03/02 09:25:47;;;;;;;18.88;9.10;;;;;;;6.82;100.00;101816.50;5039436;28;20108;-55
2023/03/02 09:28:14;;;;;;;15.77;7.32;;;;;;;6.76;100.00;101810.78;5037797;28;20037;-55
2023/03/02 09:30:39;;;;;;;13.85;8.05;;;;;;;6.86;100.00;101813.44;5037335;28;20039;-54
2023/03/02 09:33:05;;;;;;;15.88;7.00;;;;;;;6.92;100.00;101820.00;5038245;28;20029;-50
2023/03/02 09:35:30;;;;;;;20.00;8.13;;;;;;;7.07;100.00;101818.63;5040354;28;20163;-52
2023/03/02 09:37:55;;;;;;;11.68;7.65;;;;;;;7.08;100.00;101809.75;5040837;28;20074;-51
2023/03/02 09:40:25;;;;;;;12.10;7.53;;;;;;;7.16;100.00;101817.00;5034137;28;20458;-57
2023/03/02 09:43:03;;;;;;;13.63;7.65;;;;;;;7.07;100.00;101813.34;5036816;28;20029;-54
2023/03/02 09:45:48;;;;;;;15.38;6.75;;;;;;;6.94;100.00;101816.25;5038768;28;20080;-55
2023/03/02 09:48:27;;;;;;;11.75;6.97;;;;;;;6.84;100.00;101815.41;5038771;28;20029;-53
2023/03/02 09:51:04;;;;;;;19.35;7.65;;;;;;;6.93;100.00;101809.28;5038710;28;20346;-55
2023/03/02 09:53:56;;;;;;;17.27;9.77;;;;;;;7.06;100.00;101806.41;5040456;28;20513;-56
2023/03/02 09:56:22;;;;;;;12.25;6.93;;;;;;;7.20;100.00;101807.81;5035908;28;20037;-53
2023/03/02 09:58:59;;;;;;;12.90;8.15;;;;;;;7.10;100.00;101807.81;5034798;28;20025;-50
2023/03/02 10:01:34;;;;;;;14.18;8.00;;;;;;;7.32;100.00;101808.53;5042814;28;20508;-53
2023/03/02 10:04:13;;;;;;;14.73;7.07;;;;;;;7.46;100.00;101813.44;5036547;28;20102;-54
2023/03/02 10:06:38;;;;;;;13.77;8.07;;;;;;;7.56;100.00;101813.41;5038354;28;20040;-53
2023/03/02 10:09:03;;;;;;;12.63;7.68;;;;;;;7.79;100.00;101829.81;5037980;28;20029;-57
2023/03/02 10:12:20;;;;;;;16.58;8.60;;;;;;;7.89;100.00;101820.06;5033956;28;20028;-55
2023/03/02 10:14:56;;;;;;;15.90;7.90;;;;;;;7.84;100.00;101830.22;5012945;28;20072;-52
2023/03/02 10:17:41;;;;;;;14.20;8.40;;;;;;;8.11;100.00;101831.31;5035349;28;20053;-54
2023/03/02 10:20:18;;;;;;;13.73;8.13;;;;;;;8.19;100.00;101826.16;5043408;28;20037;-54
2023/03/02 10:22:49;;;;;;;15.13;7.60;;;;;;;8.29;100.00;101829.59;5041008;28;20408;-51
2023/03/02 10:25:30;;;;;;;12.85;6.97;;;;;;;8.07;100.00;101831.59;5045241;28;20468;-54
2023/03/02 10:28:20;;;;;;;17.38;7.05;;;;;;;7.84;100.00;101828.41;5041917;28;20505;-51
2023/03/02 10:30:52;;;;;;;11.10;6.28;;;;;;;8.00;100.00;101833.16;5043392;28;20402;-51
2023/03/02 10:33:20;;;;;;;14.10;6.50;;;;;;;8.12;100.00;101817.94;5045791;28;20041;-53
2023/03/02 10:35:50;;;;;;;9.23;7.05;;;;;;;8.20;100.00;101825.16;5046232;28;20921;-51
2023/03/02 10:38:22;;;;;;;9.80;6.33;;;;;;;8.03;100.00;101826.75;5045943;28;20047;-52
2023/03/02 10:40:48;;;;;;;;;;;;;;;7.92;100.00;101818.97;5039917;28;20067;-52
2023/03/02 10:43:25;;;;;;;10.88;6.18;;;;;;;8.06;100.00;101815.88;5043656;28;19962;-52
2023/03/02 10:46:08;;;;;;;13.10;6.28;;;;;;;8.16;100.00;101816.72;5041311;28;20056;-48
2023/03/02 10:49:00;;;;;;;12.88;7.38;;;;;;;8.37;100.00;101810.41;5044933;28;20053;-51
2023/03/02 10:51:33;;;;;;;;;;;;;;;8.44;100.00;101808.84;5039912;28;20049;-54
2023/03/02 10:54:05;;;;;;;10.77;5.93;;;;;;;8.33;100.00;101812.47;5040847;28;19920;-52
2023/03/02 10:56:31;;;;;;;12.13;6.75;;;;;;;8.42;100.00;101810.84;5042312;28;20021;-55
2023/03/02 10:59:02;;;;;;;12.15;6.90;;;;;;;8.55;100.00;101813.16;5044833;28;20029;-51
2023/03/02 11:01:30;;;;;;;14.03;6.37;;;;;;;8.52;100.00;101815.09;5044728;28;20040;-50
2023/03/02 11:04:01;;;;;;;11.85;6.47;;;;;;;8.25;100.00;101810.56;5044189;28;20040;-54
2023/03/02 11:06:28;;;;;;;12.77;7.30;;;;;;;8.32;100.00;101815.28;5044600;28;20518;-51
2023/03/02 11:09:03;;;;;;;23.23;8.65;;;;;;;8.49;100.00;101812.75;5042724;28;20129;-51
2023/03/02 11:11:29;;;;;;;12.88;6.43;;;;;;;8.81;100.00;101816.78;5039870;28;20033;-49
2023/03/02 11:13:55;;;;;;;14.95;7.63;;;;;;;8.84;100.00;101808.56;5044737;28;20401;-50
2023/03/02 11:16:25;;;;;;;10.52;6.90;;;;;;;8.85;100.00;101818.13;5034972;28;20102;-54
2023/03/02 11:18:58;;;;;;;9.90;5.63;;;;;;;8.94;100.00;101811.16;5041129;28;20028;-49
2023/03/02 11:21:34;;;;;;;15.98;7.50;;;;;;;9.00;100.00;101817.66;5041573;28;20044;-53
2023/03/02 11:24:07;;;;;;;10.00;6.22;;;;;;;9.17;100.00;101815.03;5043034;28;20032;-51
2023/03/02 11:26:56;;;;;;;10.90;7.80;;;;;;;9.23;100.00;101808.31;5044228;28;20033;-51
2023/03/02 11:29:27;;;;;;;8.05;5.45;;;;;;;9.51;100.00;101808.25;5035163;28;20041;-50